Main page
METAR-TAF:

METAR-TAF

Airports :

Léopold Sédar Senghor International Airport

Dakar, Senegal

latitude: 14-44N, longitude: 017-30W, elevation: 27 m

Current weather observation

The report was made 17 minutes ago, at 21:00 UTC
Wind 12 kt from the North
Temperature 21°C
Humidity 88%
Pressure 1012 hPa
Visibility: 8000 m
Scattered clouds at a height of 1000 ft

METAR: GOOY 202100Z 36012KT 8000 SCT010 21/19 Q1012

Time: 21:17 (21:17 UTC)

Forecast

The report was made 3 hours and 47 minutes ago, at 17:30 UTC
Forecast valid from 20 at 18 UTC to 21 at 24 UTC
Wind 10 kt from the North
Visibility 10 km or more
Scattered clouds at a height of 1000 ft
Temporary
from 21 at 02 UTC to 21 at 08 UTC
Broken clouds at a height of 800 ft

TAF: GOOY 201730Z 2018/2124 35010KT 9999 SCT010 TEMPO 2102/2108 BKN008

Weather observations and forecasts of more than 4000 airports (METAR and TAF reports).

The available stations are represented by yellow and red dots on the map.

Hover mouse over dot to see the name of the station.

Then click to see weather observations and forecasts.

To change the map : click on the green buttons with a black cross to zoom in, on the green button with a dash to zoom out, or on the green arrows for adjacent maps.


METAR-TAF: